createdAt,value
2019-04-07T00:00:01.666Z,33.6
2019-04-07T00:05:10.907Z,33.6
2019-04-07T00:10:02.032Z,33.6
2019-04-07T00:15:02.490Z,32.6
2019-04-07T00:20:02.447Z,33.6
2019-04-07T00:25:02.577Z,33.6
2019-04-07T00:30:02.318Z,33.6
2019-04-07T00:35:02.066Z,33.1
2019-04-07T00:40:02.266Z,33.1
2019-04-07T00:45:02.968Z,32.6
2019-04-07T00:50:01.666Z,32.6
2019-04-07T00:55:02.273Z,32
2019-04-07T01:00:02.832Z,32.6
2019-04-07T01:05:01.824Z,32.6
2019-04-07T01:10:02.097Z,32.6
2019-04-07T01:15:02.291Z,32
2019-04-07T01:20:02.474Z,32.6
2019-04-07T01:25:02.431Z,32
2019-04-07T01:30:02.872Z,32.6
2019-04-07T01:35:02.514Z,31.5
2019-04-07T01:40:02.293Z,31.5
2019-04-07T01:45:01.788Z,31.5
2019-04-07T01:50:02.224Z,31.5
2019-04-07T01:55:02.721Z,31.5
2019-04-07T02:00:02.031Z,31.5
2019-04-07T02:05:01.959Z,30.4
2019-04-07T02:10:02.512Z,31.5
2019-04-07T02:15:02.352Z,30.4
2019-04-07T02:20:01.887Z,30.9
2019-04-07T02:25:01.925Z,30.4
2019-04-07T02:30:01.829Z,31.5
2019-04-07T02:35:03.547Z,30.4
2019-04-07T02:40:02.534Z,30.9
2019-04-07T02:45:01.794Z,30.9
2019-04-07T02:50:02.207Z,31.5
2019-04-07T02:55:02.617Z,30.4
2019-04-07T03:00:01.664Z,30.9
2019-04-07T03:05:02.354Z,30.4
2019-04-07T03:10:02.901Z,30.4
2019-04-07T03:15:02.784Z,30.4
2019-04-07T03:20:02.882Z,30.9
2019-04-07T03:25:02.304Z,30.4
2019-04-07T03:30:01.786Z,30.4
2019-04-07T03:35:03.045Z,30.4
2019-04-07T03:40:02.640Z,30.4
2019-04-07T03:45:02.299Z,30.4
2019-04-07T03:50:03.343Z,30.4
2019-04-07T03:55:02.086Z,30.4
2019-04-07T04:00:02.528Z,29.9
2019-04-07T04:05:02.965Z,30.4
2019-04-07T04:10:01.648Z,30.4
2019-04-07T04:15:01.876Z,29.9
2019-04-07T04:20:01.816Z,30.4
2019-04-07T04:25:01.708Z,29.9
2019-04-07T04:30:03.051Z,29.3
2019-04-07T04:35:03.138Z,29.3
2019-04-07T04:40:02.332Z,30.4
2019-04-07T04:45:02.373Z,29.3
2019-04-07T04:50:02.608Z,29.9
2019-04-07T04:55:02.228Z,29.3
2019-04-07T05:00:02.519Z,29.3
2019-04-07T05:05:02.562Z,29.3
2019-04-07T05:10:01.757Z,29.9
2019-04-07T05:15:02.521Z,29.3
2019-04-07T05:20:02.608Z,29.3
2019-04-07T05:25:02.363Z,29.3
2019-04-07T05:30:02.427Z,29.3
2019-04-07T05:35:02.336Z,29.3
2019-04-07T05:40:03.499Z,29.9
2019-04-07T05:45:01.725Z,28.8
2019-04-07T05:50:03.863Z,29.3
2019-04-07T05:55:02.671Z,29.3
2019-04-07T06:00:02.564Z,29.3
2019-04-07T06:05:02.184Z,29.3
2019-04-07T06:10:02.355Z,29.9
2019-04-07T06:15:02.152Z,29.9
2019-04-07T06:20:02.685Z,30.4
2019-04-07T06:25:03.870Z,30.4
2019-04-07T06:30:02.409Z,30.4
2019-04-07T06:35:01.890Z,30.4
2019-04-07T06:40:02.052Z,30.4
2019-04-07T06:45:01.850Z,30.4
2019-04-07T06:50:04.855Z,30.4
2019-04-07T06:55:01.989Z,30.4
2019-04-07T07:00:02.547Z,30.9
2019-04-07T07:05:02.930Z,31.5
2019-04-07T07:10:03.212Z,31.5
2019-04-07T07:15:03.289Z,31.5
2019-04-07T07:20:04.307Z,31.5
2019-04-07T07:25:03.028Z,30.9
2019-04-07T07:30:02.526Z,32
2019-04-07T07:35:02.964Z,31.5
2019-04-07T07:40:04.808Z,31.5
2019-04-07T07:45:01.640Z,31.5
2019-04-07T07:50:04.763Z,32.6
2019-04-07T07:55:02.993Z,32.6
2019-04-07T08:00:04.498Z,32.6
2019-04-07T08:05:03.097Z,32.6
2019-04-07T08:10:02.985Z,33.1
2019-04-07T08:15:02.916Z,32.6
2019-04-07T08:20:02.476Z,33.1
2019-04-07T08:25:02.403Z,33.6
2019-04-07T08:30:02.687Z,33.6
2019-04-07T08:35:04.288Z,33.6
2019-04-07T08:40:06.924Z,33.6
2019-04-07T08:45:03.232Z,33.6
2019-04-07T08:50:02.887Z,34.2
2019-04-07T08:55:01.968Z,34.2
2019-04-07T09:00:01.658Z,34.2
2019-04-07T09:05:02.601Z,34.7
2019-04-07T09:10:02.403Z,35.2
2019-04-07T09:15:04.180Z,34.7
2019-04-07T09:20:05.450Z,35.2
2019-04-07T09:25:04.813Z,34.7
2019-04-07T09:30:02.417Z,35.2
2019-04-07T09:35:02.397Z,35.8
2019-04-07T09:40:03.417Z,35.8
2019-04-07T09:45:03.272Z,35.8
2019-04-07T09:50:02.024Z,35.2
2019-04-07T09:55:02.032Z,35.8
2019-04-07T10:00:02.106Z,35.8
2019-04-07T10:05:01.997Z,35.8
2019-04-07T10:10:08.842Z,35.8
2019-04-07T10:15:02.298Z,35.8
2019-04-07T10:20:02.294Z,36.3
2019-04-07T10:25:02.389Z,35.8
2019-04-07T10:30:01.738Z,36.9
2019-04-07T10:35:02.562Z,36.3
2019-04-07T10:40:03.057Z,36.3
2019-04-07T10:45:02.209Z,36.9
2019-04-07T10:50:05.463Z,36.9
2019-04-07T10:55:01.672Z,36.9
2019-04-07T11:00:03.218Z,36.9
2019-04-07T11:05:02.037Z,36.9
2019-04-07T11:10:02.871Z,36.9
2019-04-07T11:15:02.450Z,36.9
2019-04-07T11:20:02.873Z,37.4
2019-04-07T11:25:01.968Z,37.9
2019-04-07T11:30:02.488Z,37.4
2019-04-07T11:35:02.833Z,37.4
2019-04-07T11:40:02.195Z,37.9
2019-04-07T11:45:03.085Z,37.9
2019-04-07T11:50:01.790Z,37.9
2019-04-07T11:55:02.071Z,37.9
2019-04-07T12:00:02.402Z,37.9
2019-04-07T12:05:03.246Z,37.9
2019-04-07T12:10:02.897Z,37.9
2019-04-07T12:15:02.239Z,37.9
2019-04-07T12:20:02.056Z,37.9
2019-04-07T12:25:03.414Z,37.9
2019-04-07T12:30:02.454Z,39
2019-04-07T12:35:01.840Z,38.5
2019-04-07T12:40:02.466Z,38.5
2019-04-07T12:45:01.887Z,39
2019-04-07T12:50:02.424Z,39.5
2019-04-07T12:55:02.285Z,39.5
2019-04-07T13:00:01.715Z,40.6
2019-04-07T13:05:03.498Z,41.2
2019-04-07T13:10:03.982Z,41.2
2019-04-07T13:15:02.365Z,41.2
2019-04-07T13:20:02.275Z,41.7
2019-04-07T13:25:04.489Z,42.2
2019-04-07T13:30:02.973Z,42.2
2019-04-07T13:35:02.287Z,42.2
2019-04-07T13:40:02.047Z,42.2
2019-04-07T13:45:03.843Z,41.2
2019-04-07T13:50:02.541Z,41.2
2019-04-07T13:55:04.414Z,40.6
2019-04-07T14:00:01.905Z,41.2
2019-04-07T14:05:05.086Z,40.6
2019-04-07T14:10:04.318Z,41.2
2019-04-07T14:15:01.831Z,41.2
2019-04-07T14:20:02.415Z,40.6
2019-04-07T14:25:02.675Z,40.1
2019-04-07T14:30:02.712Z,41.2
2019-04-07T14:35:02.266Z,40.1
2019-04-07T14:40:03.587Z,41.2
2019-04-07T14:45:02.196Z,40.1
2019-04-07T14:50:02.351Z,40.6
2019-04-07T14:55:02.677Z,40.6
2019-04-07T15:00:02.105Z,41.2
2019-04-07T15:05:02.911Z,41.2
2019-04-07T15:10:01.728Z,41.2
2019-04-07T15:15:04.614Z,41.2
2019-04-07T15:20:02.779Z,41.2
2019-04-07T15:25:03.360Z,41.7
2019-04-07T15:30:02.343Z,41.7
2019-04-07T15:35:02.447Z,42.2
2019-04-07T15:40:03.873Z,42.8
2019-04-07T15:45:02.490Z,42.2
2019-04-07T15:50:02.936Z,42.2
2019-04-07T15:55:02.101Z,42.2
2019-04-07T16:00:03.740Z,42.2
2019-04-07T16:05:02.567Z,42.2
2019-04-07T16:10:02.358Z,42.2
2019-04-07T16:15:02.195Z,41.7
2019-04-07T16:20:02.287Z,42.2
2019-04-07T16:25:02.338Z,42.2
2019-04-07T16:30:02.980Z,41.2
2019-04-07T16:35:02.040Z,41.2
2019-04-07T16:40:06.179Z,41.7
2019-04-07T16:45:01.915Z,40.6
2019-04-07T16:50:03.103Z,41.2
2019-04-07T16:55:02.414Z,40.1
2019-04-07T17:00:01.606Z,40.1
2019-04-07T17:05:01.782Z,39.5
2019-04-07T17:10:02.596Z,40.1
2019-04-07T17:15:04.496Z,39
2019-04-07T17:20:01.786Z,39.5
2019-04-07T17:25:06.229Z,39
2019-04-07T17:30:03.010Z,39.5
2019-04-07T17:35:02.385Z,37.9
2019-04-07T17:40:01.602Z,38.5
2019-04-07T17:45:02.260Z,38.5
2019-04-07T17:50:02.326Z,38.5
2019-04-07T17:55:03.004Z,38.5
2019-04-07T18:00:01.834Z,38.5
2019-04-07T18:05:02.156Z,37.9
2019-04-07T18:10:02.765Z,37.9
2019-04-07T18:15:05.673Z,37.9
2019-04-07T18:20:05.587Z,37.9
2019-04-07T18:25:03.414Z,36.9
2019-04-07T18:30:02.038Z,37.4
2019-04-07T18:35:02.493Z,36.9
2019-04-07T18:40:02.394Z,36.9
2019-04-07T18:45:02.163Z,36.9
2019-04-07T18:50:06.258Z,36.9
2019-04-07T18:55:04.078Z,36.3
2019-04-07T19:00:04.200Z,35.8
2019-04-07T19:05:02.041Z,36.9
2019-04-07T19:10:07.671Z,36.3
2019-04-07T19:15:06.879Z,36.3
2019-04-07T19:20:05.259Z,36.3
2019-04-07T19:25:04.749Z,35.8
2019-04-07T19:30:02.197Z,35.8
2019-04-07T19:35:02.566Z,35.8
2019-04-07T19:40:02.815Z,35.8
2019-04-07T19:45:04.191Z,35.8
2019-04-07T19:50:02.725Z,35.8
2019-04-07T19:55:02.298Z,35.2
2019-04-07T20:00:02.663Z,34.7
2019-04-07T20:05:02.115Z,34.7
2019-04-07T20:10:03.018Z,35.2
2019-04-07T20:15:06.821Z,34.7
2019-04-07T20:20:02.522Z,34.2
2019-04-07T20:25:02.387Z,34.2
2019-04-07T20:30:02.955Z,34.7
2019-04-07T20:35:03.110Z,33.6
2019-04-07T20:40:03.431Z,34.2
2019-04-07T20:45:05.536Z,33.6
2019-04-07T20:50:02.096Z,33.6
2019-04-07T20:55:04.603Z,33.6
2019-04-07T21:00:03.428Z,33.6
2019-04-07T21:05:02.750Z,33.1
2019-04-07T21:10:04.461Z,33.1
2019-04-07T21:15:16.008Z,32.6
2019-04-07T21:20:01.986Z,32.6
2019-04-07T21:25:01.872Z,32.6
2019-04-07T21:30:02.397Z,32.6
2019-04-07T21:35:03.058Z,32.6
2019-04-07T21:40:04.079Z,32.6
2019-04-07T21:45:04.668Z,31.5
2019-04-07T21:50:05.264Z,32.6
2019-04-07T21:55:02.258Z,31.5
2019-04-07T22:00:01.633Z,31.5
2019-04-07T22:05:02.893Z,31.5
2019-04-07T22:10:03.149Z,31.5
2019-04-07T22:15:02.413Z,32
2019-04-07T22:20:02.728Z,31.5
2019-04-07T22:25:05.965Z,31.5
2019-04-07T22:30:04.785Z,31.5
2019-04-07T22:35:04.249Z,31.5
2019-04-07T22:40:02.468Z,31.5
2019-04-07T22:45:02.114Z,31.5
2019-04-07T22:50:04.386Z,31.5
2019-04-07T22:55:04.465Z,31.5
2019-04-07T23:00:02.366Z,31.5
2019-04-07T23:05:02.984Z,31.5
2019-04-07T23:10:02.756Z,30.9
2019-04-07T23:15:01.761Z,30.9
2019-04-07T23:20:02.523Z,30.4
2019-04-07T23:25:02.083Z,30.4
2019-04-07T23:30:01.968Z,30.4
2019-04-07T23:35:01.800Z,30.4
2019-04-07T23:40:02.452Z,30.9
2019-04-07T23:45:03.019Z,29.9
2019-04-07T23:50:02.868Z,30.4
2019-04-07T23:55:02.423Z,30.4
